Latest Weather Observations for Weipa

IDQ60801

Issued at 9:32 am EST Monday 30 March 2015 (issued every 30 minutes, with the page automatically refreshed every 10 minutes)

About weather observations | Map of weather stations | Latest weather observations for QLD | Other Formats
Station Details ID: 027045 Name: WEIPA AERO Lat: -12.68 Lon: 141.92 Height: 17.96 m
Data from the previous 72 hours. | See also: Recent months at Weipa
Date/Time
EST
Temp
°C
App
Temp
°C
Dew
Point
Rel
Hum
%
Delta-T
°C
Wind Press
QNH
hPa
Press
MSL
hPa
Rain
since 9 am
mm
Dir
 
Spd
km/h
Gust
km/h
Spd
kts
Gust
kts
30/09:30am 29.0 30.4 22.9 69 4.2 ESE 20 32 11 17 1013.7 - 0.0
30/09:00am 28.0 30.3 23.5 76 3.1 ESE 17 26 9 14 1013.7 1013.5 0.0
30/08:30am 27.0 30.0 23.4 80 2.5 E 13 19 7 10 1013.4 - 0.0
30/08:00am 25.6 28.4 23.0 85 1.8 E 13 20 7 11 1012.9 - 0.0
30/07:30am 24.5 28.4 22.9 91 1.1 ESE 7 13 4 7 1012.9 - 0.0
30/07:00am 23.7 27.7 22.7 94 0.7 E 6 9 3 5 1012.6 - 0.0
30/06:30am 23.5 27.8 22.6 95 0.6 ESE 4 6 2 3 1012.3 - 0.0
30/06:00am 23.7 28.0 22.7 94 0.7 SE 4 4 2 2 1012.1 1011.9 0.0
30/05:30am 24.0 28.0 22.7 92 0.9 SSE 6 7 3 4 1011.8 - 0.0
30/05:00am 24.2 28.0 22.8 92 0.9 SSE 7 11 4 6 1011.6 - 0.0
30/04:30am 24.0 28.0 22.7 92 0.9 SSE 6 9 3 5 1011.4 - 0.0
30/04:00am 23.7 27.6 22.5 93 0.8 SSE 6 7 3 4 1011.5 - 0.0
30/03:30am 23.4 27.5 22.3 93 0.7 ESE 4 6 2 3 1011.5 - 0.0
30/03:00am 23.4 28.3 22.4 94 0.7 CALM 0 2 0 1 1011.6 1011.4 0.0
30/02:30am 23.2 28.0 22.1 93 0.7 CALM 0 2 0 1 1011.9 - 0.0
30/02:00am 23.3 28.1 22.1 93 0.8 CALM 0 2 0 1 1012.1 - 0.0
30/01:30am 23.5 28.2 22.0 91 1.0 CALM 0 2 0 1 1012.4 - 0.0
30/01:00am 23.7 28.5 22.1 91 1.1 CALM 0 2 0 1 1013.0 - 0.0
30/12:30am 23.9 28.4 21.6 87 1.5 CALM 0 0 0 0 1013.3 - 0.0
30/12:00am 24.6 28.0 21.6 83 2.0 E 6 6 3 3 1013.6 1013.4 0.0
 
Date/Time
EST
Temp
°C
App
Temp
°C
Dew
Point
Rel
Hum
%
Delta-T
°C
Wind Press
QNH
hPa
Press
MSL
hPa
Rain
since 9 am
mm
Dir
 
Spd
km/h
Gust
km/h
Spd
kts
Gust
kts
29/11:30pm 24.7 28.4 21.4 82 2.2 SE 4 7 2 4 1013.8 - 0.0
29/11:00pm 25.1 28.3 21.3 79 2.5 E 6 6 3 3 1013.6 - 0.0
29/10:30pm 25.4 28.3 21.0 76 2.9 SE 7 9 4 5 1013.8 - 0.0
29/10:00pm 26.2 29.0 20.9 72 3.5 E 7 11 4 6 1013.4 - 0.0
29/09:30pm 27.0 29.2 20.4 67 4.3 E 9 15 5 8 1013.3 - 0.0
29/09:00pm 27.1 29.4 20.6 67 4.3 E 9 15 5 8 1013.2 1013.0 0.0
29/08:30pm 27.5 29.8 20.6 66 4.5 E 9 13 5 7 1012.9 - 0.0
29/08:00pm 28.3 30.4 20.1 61 5.4 E 9 13 5 7 1012.6 - 0.0
29/07:30pm 28.7 30.8 20.2 60 5.6 E 9 15 5 8 1012.2 - 0.0
29/07:00pm 29.1 31.1 20.0 58 6.0 E 9 13 5 7 1011.7 - 0.0
29/06:30pm 30.0 32.0 19.9 54 6.6 E 9 17 5 9 1011.3 - 0.0
29/06:00pm 30.9 33.4 20.3 53 7.0 E 7 13 4 7 1010.7 1010.5 0.0
29/05:30pm 31.5 32.2 19.7 49 7.8 ESE 15 22 8 12 1010.5 - 0.0
29/05:00pm 31.8 32.0 19.4 47 8.1 E 17 24 9 13 1010.3 - 0.0
29/04:30pm 32.1 32.4 20.3 49 7.8 ESE 19 30 10 16 1010.1 - 0.0
29/04:00pm 32.2 32.3 19.1 45 8.6 ESE 17 26 9 14 1010.1 - 0.0
29/03:30pm 32.4 34.1 20.1 48 8.2 ESE 11 19 6 10 1010.0 - 0.0
29/03:00pm 32.2 32.7 19.2 46 8.5 ESE 15 28 8 15 1010.2 1010.0 0.0
29/02:30pm 32.2 33.3 20.5 50 7.8 ESE 15 26 8 14 1010.5 - 0.0
29/02:00pm 31.3 31.4 20.0 51 7.5 SE 19 26 10 14 1010.9 - 0.0
29/01:30pm 31.5 32.5 20.2 51 7.5 E 15 26 8 14 1011.1 - 0.0
29/01:00pm 31.5 31.7 20.6 52 7.3 ESE 20 33 11 18 1011.4 - 0.0
29/12:30pm 31.1 31.7 21.1 55 6.7 E 19 30 10 16 1012.1 - 0.0
29/12:00pm 30.8 31.2 20.9 55 6.6 E 20 37 11 20 1012.6 1012.4 0.0
29/11:30am 30.4 31.4 22.1 61 5.6 ESE 20 32 11 17 1013.1 - 0.0
29/11:00am 29.3 30.0 21.6 63 5.2 E 20 30 11 16 1013.6 - 0.0
29/10:30am 29.3 30.2 21.9 64 5.0 ESE 20 35 11 19 1013.8 - 0.0
29/10:00am 28.6 29.0 21.8 66 4.6 ESE 22 30 12 16 1014.1 - 0.0
29/09:30am 27.9 29.1 22.1 70 3.9 ESE 19 26 10 14 1014.1 - 0.0
29/09:00am 26.8 29.2 22.2 76 3.1 E 13 20 7 11 1013.9 1013.7 0.0
29/08:30am 25.3 28.3 21.9 81 2.3 E 9 15 5 8 1013.8 - 0.0
29/08:00am 24.0 27.6 22.0 88 1.3 ESE 6 7 3 4 1013.7 - 0.0
29/07:30am 22.8 26.1 21.5 92 0.9 ESE 6 9 3 5 1013.2 - 0.0
29/07:00am 21.7 24.8 21.0 96 0.5 SE 6 9 3 5 1012.7 - 0.0
29/06:30am 21.3 24.1 20.8 97 0.3 SE 7 9 4 5 1012.4 - 0.0
29/06:00am 20.9 23.7 20.5 98 0.3 ESE 6 6 3 3 1012.1 1011.9 0.0
29/05:30am 21.3 24.2 20.7 96 0.4 SE 6 9 3 5 1011.8 - 0.0
29/05:00am 21.4 24.4 20.8 96 0.4 ESE 6 7 3 4 1011.6 - 0.0
29/04:30am 21.2 24.1 20.7 97 0.3 ENE 6 6 3 3 1011.4 - 0.0
29/04:00am 21.5 24.9 20.9 96 0.4 E 4 6 2 3 1011.4 - 0.0
29/03:30am 21.6 25.4 20.9 96 0.5 S 2 4 1 2 1011.6 - 0.0
29/03:00am 21.9 25.4 21.1 95 0.5 ESE 4 4 2 2 1011.9 1011.7 0.0
29/02:30am 22.3 25.8 21.1 93 0.8 SSE 4 6 2 3 1012.0 - 0.0
29/02:00am 22.8 26.0 21.3 91 1.0 E 6 7 3 4 1012.3 - 0.0
29/01:30am 23.1 26.3 21.2 89 1.2 SSE 6 7 3 4 1012.3 - 0.0
29/01:00am 23.3 26.4 21.1 87 1.4 SE 6 7 3 4 1012.7 - 0.0
29/12:30am 23.5 27.0 21.1 86 1.6 SSE 4 6 2 3 1013.2 - 0.0
29/12:00am 23.9 26.9 21.2 85 1.8 ESE 7 11 4 6 1013.6 1013.4 0.0
 
Date/Time
EST
Temp
°C
App
Temp
°C
Dew
Point
Rel
Hum
%
Delta-T
°C
Wind Press
QNH
hPa
Press
MSL
hPa
Rain
since 9 am
mm
Dir
 
Spd
km/h
Gust
km/h
Spd
kts
Gust
kts
28/11:30pm 24.4 27.3 21.1 82 2.2 ESE 7 11 4 6 1013.6 - 0.0
28/11:00pm 25.2 27.3 20.9 77 2.8 ESE 11 17 6 9 1013.6 - 0.0
28/10:30pm 25.7 27.3 20.8 74 3.2 E 13 19 7 10 1013.5 - 0.0
28/10:00pm 26.1 28.5 20.8 72 3.5 E 9 19 5 10 1013.4 - 0.0
28/09:30pm 26.9 28.0 20.5 68 4.2 E 15 22 8 12 1013.1 - 0.0
28/09:00pm 27.6 28.7 20.5 65 4.7 E 15 24 8 13 1013.0 1012.8 0.0
28/08:30pm 27.9 29.9 20.8 65 4.7 E 11 17 6 9 1012.7 - 0.0
28/08:00pm 28.5 30.1 20.8 63 5.1 E 13 20 7 11 1012.2 - 0.0
28/07:30pm 28.8 31.3 21.0 62 5.2 E 9 15 5 8 1011.6 - 0.0
28/07:00pm 29.3 31.8 21.1 61 5.5 E 9 15 5 8 1011.0 - 0.0
28/06:30pm 29.9 32.4 21.0 59 5.9 E 9 15 5 8 1010.6 - 0.0
28/06:00pm 30.7 32.9 21.2 57 6.4 E 11 19 6 10 1010.2 1010.0 0.0
28/05:30pm 30.8 32.3 21.2 56 6.4 ESE 15 24 8 13 1009.9 - 0.0
28/05:00pm 31.8 32.2 20.6 51 7.5 E 19 28 10 15 1009.5 - 0.0
28/04:30pm 32.7 34.0 20.8 49 8.0 E 15 22 8 12 1009.5 - 0.0
28/04:00pm 32.7 32.9 20.2 47 8.3 E 19 26 10 14 1009.5 - 0.0
28/03:30pm 32.6 32.5 19.5 46 8.6 E 19 28 10 15 1009.6 - 0.0
28/03:00pm 32.6 32.7 20.4 48 8.1 ESE 20 30 11 16 1009.8 1009.6 0.0
28/02:30pm 32.6 33.6 21.0 50 7.8 ESE 17 26 9 14 1010.1 - 0.0
28/02:00pm 32.7 34.1 21.8 52 7.4 E 17 28 9 15 1010.5 - 0.0
28/01:30pm 31.4 32.2 20.6 52 7.2 E 17 24 9 13 1011.1 - 0.0
28/01:00pm 31.4 32.6 21.5 55 6.7 E 17 28 9 15 1011.7 - 0.0
28/12:30pm 30.9 32.1 21.5 57 6.3 ESE 17 24 9 13 1012.2 - 0.0
28/12:00pm 30.7 31.3 21.3 57 6.3 E 20 28 11 15 1012.8 1012.6 0.0
28/11:30am 29.8 32.3 22.5 65 5.0 E 13 20 7 11 1013.3 - 0.0
28/11:00am 29.5 30.3 22.5 66 4.8 ESE 22 30 12 16 1013.7 - 0.0
28/10:30am 29.1 30.1 22.2 66 4.7 E 20 33 11 18 1014.1 - 0.0
28/10:00am 27.8 29.9 23.1 75 3.2 ESE 17 26 9 14 1013.9 - 0.0
28/09:30am 27.3 29.8 23.1 78 2.9 E 15 24 8 13 1014.2 - 0.0
28/09:00am 26.4 29.4 23.4 83 2.0 ESE 13 19 7 10 1014.1 1013.9 3.0
28/08:30am 25.3 29.2 23.0 87 1.6 SE 7 13 4 7 1014.0 - 3.0
28/08:00am 24.1 27.7 22.1 88 1.3 SSE 6 9 3 5 1013.8 - 3.0
28/07:30am 23.2 27.2 22.0 93 0.8 SSE 4 7 2 4 1013.5 - 3.0
28/07:00am 21.8 25.8 21.3 97 0.3 SSW 2 2 1 1 1013.3 - 3.0
28/06:30am 21.5 25.7 21.0 97 0.3 CALM 0 2 0 1 1013.0 - 3.0
28/06:00am 21.9 25.8 21.1 95 0.5 ESE 2 4 1 2 1012.5 1012.3 3.0
28/05:30am 22.1 25.3 21.2 95 0.6 SE 6 7 3 4 1012.3 - 3.0
28/05:00am 22.0 25.3 21.5 97 0.3 ESE 6 6 3 3 1012.3 - 3.0
28/04:30am 21.9 26.3 21.4 97 0.3 CALM 0 0 0 0 1012.3 - 3.0
28/04:00am 22.1 26.6 21.5 96 0.4 CALM 0 2 0 1 1012.3 - 3.0
28/03:30am 22.2 26.7 21.6 96 0.4 CALM 0 0 0 0 1012.4 - 3.0
28/03:02am 22.3 26.5 21.8 97 0.3 SSE 2 6 1 3 1012.4 - 3.0
28/03:00am 22.3 26.6 21.9 98 0.3 S 2 4 1 2 1012.4 1012.2 3.0
28/02:43am 22.2 26.7 21.6 96 0.4 CALM 0 4 0 2 1012.5 - 3.0
28/02:30am 22.1 26.6 21.5 96 0.4 CALM 0 0 0 0 1012.4 - 3.0
28/02:00am 22.2 26.8 21.7 97 0.3 CALM 0 0 0 0 1012.4 - 3.0
28/01:30am 22.5 27.1 21.8 96 0.5 CALM 0 0 0 0 1012.7 - 3.0
28/01:00am 22.6 26.9 21.9 96 0.5 SSW 2 4 1 2 1013.0 - 3.0
28/12:30am 23.0 27.8 22.2 95 0.5 CALM 0 0 0 0 1013.3 - 3.0
28/12:00am 23.7 28.0 22.6 93 0.7 S 4 6 2 3 1013.6 1013.4 3.0
 
Date/Time
EST
Temp
°C
App
Temp
°C
Dew
Point
Rel
Hum
%
Delta-T
°C
Wind Press
QNH
hPa
Press
MSL
hPa
Rain
since 9 am
mm
Dir
 
Spd
km/h
Gust
km/h
Spd
kts
Gust
kts
27/11:30pm 24.0 27.8 21.7 87 1.5 SE 4 7 2 4 1013.9 - 3.0
27/11:00pm 24.2 28.8 23.1 94 0.7 E 4 6 2 3 1014.1 - 3.0
27/10:30pm 24.6 30.0 23.3 92 0.9 CALM 0 0 0 0 1014.1 - 3.0
27/10:00pm 25.0 30.2 23.5 91 1.0 E 2 4 1 2 1014.0 - 3.0
27/09:30pm 25.8 30.2 23.4 86 1.6 SE 6 9 3 5 1013.9 - 3.0
27/09:00pm 25.6 30.7 24.0 91 1.1 SE 4 6 2 3 1013.5 1013.3 3.0
27/08:30pm 25.7 30.6 24.3 92 1.0 ESE 6 7 3 4 1013.0 - 3.0
27/08:00pm 26.3 32.6 24.8 91 1.0 CALM 0 2 0 1 1012.6 - 3.0
27/07:30pm 26.6 31.8 24.8 90 1.3 S 6 6 3 3 1012.1 - 3.0
27/07:00pm 26.9 32.8 24.1 85 1.9 CALM 0 0 0 0 1011.7 - 3.0
27/06:30pm 27.2 32.8 24.2 84 2.1 W 2 4 1 2 1011.3 - 3.0
27/06:00pm 27.7 33.3 24.2 81 2.4 WNW 2 2 1 1 1010.9 1010.7 3.0
27/05:30pm 28.2 32.5 22.7 72 3.7 E 4 6 2 3 1010.6 - 3.0
27/05:00pm 28.4 32.3 21.9 68 4.4 E 4 7 2 4 1010.2 - 3.0
27/04:30pm 28.7 31.9 21.6 65 4.8 NE 7 11 4 6 1010.4 - 3.0
27/04:00pm 28.8 31.9 21.5 64 4.9 NNE 7 13 4 7 1010.6 - 3.0
27/03:30pm 28.2 32.7 22.2 70 4.0 SSE 2 6 1 3 1010.8 - 3.0
27/03:00pm 26.9 30.8 22.5 77 3.0 E 6 9 3 5 1011.2 1011.0 3.0
27/02:42pm 25.5 29.1 22.3 82 2.1 ESE 7 11 4 6 1011.6 - 3.0
27/02:30pm 24.6 28.3 22.6 89 1.3 SSW 7 17 4 9 1011.5 - 3.0
27/02:08pm 25.1 24.3 23.1 89 1.4 ESE 32 57 17 31 1012.0 - 0.4
27/02:00pm 29.5 28.4 21.1 60 5.6 E 28 57 15 31 1011.5 - 0.2
27/01:30pm 31.4 34.6 21.6 56 6.6 SE 7 17 4 9 1011.6 - 0.2
27/01:00pm 30.7 33.1 20.8 55 6.6 SSE 9 19 5 10 1012.2 - 0.2
27/12:30pm 30.7 32.8 20.9 56 6.5 SE 11 19 6 10 1012.9 - 0.2
27/12:00pm 30.1 31.9 21.2 59 6.0 ESE 13 22 7 12 1013.4 1013.2 0.2
27/11:30am 30.6 32.2 21.5 58 6.1 E 15 24 8 13 1014.1 - 0.2
27/11:00am 29.9 32.2 22.1 63 5.3 E 13 20 7 11 1014.6 - 0.2
27/10:30am 29.3 31.8 22.5 67 4.6 E 13 19 7 10 1015.0 - 0.2
27/10:00am 28.3 30.2 22.1 69 4.2 E 15 20 8 11 1015.2 - 0.0

Other Formats:

Comma delimited format used in spreadsheet applications
http://www.bom.gov.au/fwo/IDQ60801/IDQ60801.94170.axf

JavaScript Object Notation format (JSON) in row-major order
http://www.bom.gov.au/fwo/IDQ60801/IDQ60801.94170.json